Time;durP1;ratioP1;P1;durP2;ratioP2;P2;SDS_P1;SDS_P2;PMS_P1;PMS_P2;Temp;Humidity;BMP_temperature;BMP_pressure;BME280_temperature;BME280_humidity;BME280_pressure;Samples;Min_cycle;Max_cycle;Signal;HPM_P1;HPM_P2
2022/08/17 00:00:43;;;;;;;7.22;4.22;;;;;;;22.85;55.50;98842.44;6136212;23;20005;-90
2022/08/17 00:03:16;;;;;;;6.18;4.00;;;;;;;22.82;55.93;98849.47;6135649;23;20005;-90
2022/08/17 00:05:52;;;;;;;7.18;4.40;;;;;;;22.63;56.45;98825.59;6185240;23;20021;-91
2022/08/17 00:08:20;;;;;;;7.57;3.80;;;;;;;22.68;56.16;98828.03;6161969;23;20005;-90
2022/08/17 00:10:45;;;;;;;5.75;4.03;;;;;;;22.68;56.28;98819.00;6160352;23;20068;-91
2022/08/17 00:13:24;;;;;;;5.80;4.07;;;;;;;22.60;56.31;98827.09;6135276;23;19997;-90
2022/08/17 00:15:50;;;;;;;7.28;4.20;;;;;;;22.67;55.91;98826.44;6185137;23;20005;-90
2022/08/17 00:18:19;;;;;;;5.28;4.38;;;;;;;22.74;55.96;98821.09;6136568;23;20001;-91
2022/08/17 00:20:45;;;;;;;6.68;4.03;;;;;;;22.80;55.84;98824.31;6185606;23;20345;-90
2022/08/17 00:23:15;;;;;;;5.32;4.20;;;;;;;22.97;55.89;98837.59;6135919;23;20084;-90
2022/08/17 00:25:42;;;;;;;8.80;4.00;;;;;;;22.93;55.48;98823.03;6159687;23;20005;-90
2022/08/17 00:28:07;;;;;;;4.85;3.50;;;;;;;22.98;55.10;98832.91;6158593;23;20013;-91
2022/08/17 00:30:37;;;;;;;9.15;4.45;;;;;;;22.96;55.45;98818.75;6160208;23;20503;-91
2022/08/17 00:33:11;;;;;;;5.53;3.85;;;;;;;22.75;57.04;98811.69;6184912;23;20326;-90
2022/08/17 00:35:38;;;;;;;5.40;3.95;;;;;;;22.56;57.80;98806.25;6184896;23;20001;-90
2022/08/17 00:38:08;;;;;;;7.63;4.15;;;;;;;22.47;58.17;98806.44;6135589;23;20012;-90
2022/08/17 00:40:57;;;;;;;8.07;3.95;;;;;;;22.36;58.46;98800.75;6160389;23;20009;-90
2022/08/17 00:43:35;;;;;;;6.10;4.20;;;;;;;22.33;58.60;98826.19;6153324;23;20523;-90
2022/08/17 00:46:12;;;;;;;5.40;4.18;;;;;;;22.16;59.24;98813.66;6129149;23;20464;-91
2022/08/17 00:48:38;;;;;;;7.60;4.30;;;;;;;22.03;59.49;98805.91;6150851;23;20001;-90
2022/08/17 00:51:18;;;;;;;7.10;3.90;;;;;;;22.14;59.08;98832.41;6128907;23;20061;-89
2022/08/17 00:53:51;;;;;;;5.68;4.00;;;;;;;21.95;59.40;98803.00;6154114;23;19997;-90
2022/08/17 00:56:21;;;;;;;5.25;4.15;;;;;;;21.97;59.28;98811.66;6129046;23;20001;-90
2022/08/17 00:58:48;;;;;;;5.00;4.07;;;;;;;22.12;59.00;98814.72;6129568;23;20392;-91
2022/08/17 01:01:14;;;;;;;7.97;4.53;;;;;;;22.04;58.54;98823.94;6153573;23;20607;-93
2022/08/17 01:03:42;;;;;;;6.18;4.45;;;;;;;21.91;59.07;98804.88;6128625;23;20445;-92
2022/08/17 01:06:08;;;;;;;6.15;4.45;;;;;;;22.05;58.52;98800.88;6152263;23;20137;-92
2022/08/17 01:08:35;;;;;;;5.75;3.92;;;;;;;22.13;58.74;98813.56;6153411;23;20005;-92
2022/08/17 01:11:01;;;;;;;5.47;3.92;;;;;;;22.07;59.77;98815.00;6129155;23;20020;-93
2022/08/17 01:13:26;;;;;;;5.45;3.70;;;;;;;22.06;59.22;98818.88;6132800;23;20002;-91
2022/08/17 01:15:56;;;;;;;4.82;4.25;;;;;;;21.98;59.00;98816.00;6159509;23;20009;-91
2022/08/17 01:18:22;;;;;;;4.63;3.78;;;;;;;21.92;59.38;98813.91;6135238;23;20080;-92
2022/08/17 01:20:50;;;;;;;5.65;3.90;;;;;;;21.93;59.79;98820.97;6135470;23;20005;-90
2022/08/17 01:23:19;;;;;;;5.15;4.38;;;;;;;21.90;58.99;98811.50;6160878;23;20001;-91
2022/08/17 01:25:48;;;;;;;5.95;3.72;;;;;;;21.87;59.59;98814.16;6184237;23;20084;-92
2022/08/17 01:28:13;;;;;;;6.22;3.70;;;;;;;21.81;59.57;98819.16;6136100;23;19997;-91
2022/08/17 01:30:41;;;;;;;6.85;4.40;;;;;;;21.84;60.18;98832.13;6158997;23;20492;-92
2022/08/17 01:33:10;;;;;;;5.75;4.13;;;;;;;21.75;60.38;98812.38;6160374;23;20036;-92
2022/08/17 01:35:38;;;;;;;6.43;4.40;;;;;;;21.69;60.36;98808.31;6159798;23;20000;-91
2022/08/17 01:38:05;;;;;;;5.57;3.90;;;;;;;21.65;60.50;98804.69;6134889;23;20075;-91
2022/08/17 01:40:37;;;;;;;6.75;4.15;;;;;;;21.64;60.38;98820.31;6183765;23;20024;-92
2022/08/17 01:43:14;;;;;;;5.40;3.65;;;;;;;21.48;60.63;98801.19;6160152;23;20024;-92
2022/08/17 01:45:42;;;;;;;5.32;4.00;;;;;;;21.53;60.22;98817.31;6135236;23;20036;-92
2022/08/17 01:48:08;;;;;;;7.13;3.65;;;;;;;21.30;60.85;98797.19;6134941;23;20325;-91
2022/08/17 01:50:34;;;;;;;4.50;3.72;;;;;;;21.28;60.82;98800.28;6134602;23;20055;-92
2022/08/17 01:53:10;;;;;;;5.80;3.75;;;;;;;21.28;61.14;98794.00;6134500;23;20435;-92
2022/08/17 01:55:48;;;;;;;6.45;3.78;;;;;;;21.39;60.60;98804.06;6159775;23;19997;-91
2022/08/17 01:58:15;;;;;;;5.32;3.60;;;;;;;21.29;61.11;98787.38;6137259;23;20001;-92
2022/08/17 02:00:43;;;;;;;7.40;3.95;;;;;;;21.27;60.44;98793.22;6160021;23;20001;-91
2022/08/17 02:03:11;;;;;;;6.93;4.07;;;;;;;21.22;60.94;98787.19;6158354;23;20005;-91
2022/08/17 02:05:37;;;;;;;5.45;3.90;;;;;;;21.33;60.61;98804.69;6158953;23;20444;-92
2022/08/17 02:08:03;;;;;;;6.75;4.35;;;;;;;21.33;60.75;98804.69;6158634;23;20008;-92
2022/08/17 02:10:32;;;;;;;5.13;4.10;;;;;;;21.27;60.77;98784.19;6158833;23;20009;-91
2022/08/17 02:12:57;;;;;;;6.03;4.18;;;;;;;21.28;60.57;98791.25;6135704;23;20012;-92
2022/08/17 02:15:24;;;;;;;4.70;3.40;;;;;;;21.17;60.90;98786.31;6158648;23;20016;-91
2022/08/17 02:17:49;;;;;;;5.43;3.80;;;;;;;21.25;60.99;98791.97;6184099;23;19997;-92
2022/08/17 02:20:15;;;;;;;6.35;3.88;;;;;;;21.21;61.45;98786.41;6135474;23;20008;-92
2022/08/17 02:22:44;;;;;;;4.85;3.50;;;;;;;21.19;61.04;98799.66;6185150;23;20005;-92
2022/08/17 02:25:11;;;;;;;6.15;4.20;;;;;;;21.21;61.16;98791.88;6159564;23;20444;-92
2022/08/17 02:27:37;;;;;;;5.40;4.00;;;;;;;21.46;60.64;98799.91;6134834;23;20008;-90
2022/08/17 02:30:08;;;;;;;6.72;4.28;;;;;;;21.41;61.50;98792.75;6159123;23;20424;-92
2022/08/17 02:32:33;;;;;;;8.80;4.28;;;;;;;21.33;60.99;98780.03;6159408;23;20033;-92
2022/08/17 02:34:59;;;;;;;6.10;3.83;;;;;;;21.45;61.29;98801.88;6133246;23;20012;-91
2022/08/17 02:37:27;;;;;;;5.38;3.75;;;;;;;21.39;61.94;98792.31;6159458;23;20005;-92
2022/08/17 02:39:55;;;;;;;13.00;4.05;;;;;;;21.43;60.95;98803.38;6184507;23;20001;-92
2022/08/17 02:42:30;;;;;;;6.22;3.90;;;;;;;21.30;61.06;98788.97;6160277;23;20079;-92
2022/08/17 02:44:57;;;;;;;6.38;3.88;;;;;;;21.18;61.53;98781.63;6162083;23;20394;-92
2022/08/17 02:47:23;;;;;;;5.18;3.70;;;;;;;21.20;61.96;98795.75;6159379;23;20001;-92
2022/08/17 02:49:51;;;;;;;6.10;3.63;;;;;;;21.18;62.36;98803.53;6159522;23;20012;-92
2022/08/17 02:52:20;;;;;;;5.43;4.03;;;;;;;20.97;61.82;98790.91;6184415;23;20009;-92
2022/08/17 02:54:49;;;;;;;5.22;3.70;;;;;;;20.93;62.08;98797.44;6184176;23;20001;-91
2022/08/17 02:57:15;;;;;;;4.78;3.75;;;;;;;20.95;61.77;98797.88;6160296;23;20007;-91
2022/08/17 02:59:40;;;;;;;4.70;3.92;;;;;;;20.94;62.85;98799.03;6160251;23;20000;-92
2022/08/17 03:02:07;;;;;;;4.90;3.70;;;;;;;20.89;62.80;98794.59;6134793;23;20491;-92
2022/08/17 03:04:33;;;;;;;6.13;3.50;;;;;;;20.84;62.34;98799.56;6134438;23;20045;-91
2022/08/17 03:07:03;;;;;;;4.60;3.50;;;;;;;20.91;61.84;98813.41;6135250;23;20005;-91
2022/08/17 03:09:30;;;;;;;6.28;3.75;;;;;;;20.99;62.02;98815.97;6135142;23;20021;-92
2022/08/17 03:12:14;;;;;;;10.23;4.05;;;;;;;21.02;61.67;98810.94;6134781;23;20031;-91
2022/08/17 03:14:40;;;;;;;7.75;3.90;;;;;;;21.08;61.45;98806.78;6135544;23;20023;-91
2022/08/17 03:17:05;;;;;;;5.95;3.67;;;;;;;21.08;61.73;98807.59;6135157;23;20001;-92
2022/08/17 03:19:33;;;;;;;8.73;3.75;;;;;;;21.04;62.44;98814.13;6133988;23;20007;-92
2022/08/17 03:22:00;;;;;;;8.30;4.07;;;;;;;21.01;62.83;98818.38;6110157;23;20088;-91
2022/08/17 03:24:28;;;;;;;6.32;3.80;;;;;;;20.98;62.65;98819.09;6135036;23;20016;-92
2022/08/17 03:26:53;;;;;;;6.88;4.20;;;;;;;20.95;62.68;98822.50;6134270;23;20001;-92
2022/08/17 03:29:21;;;;;;;5.90;3.78;;;;;;;20.82;62.41;98821.00;6160140;23;20083;-91
2022/08/17 03:31:48;;;;;;;5.10;3.90;;;;;;;20.77;62.96;98824.75;6135877;23;20001;-92
2022/08/17 03:34:14;;;;;;;5.18;3.83;;;;;;;20.70;63.20;98824.59;6112095;23;20009;-91
2022/08/17 03:36:40;;;;;;;8.60;3.85;;;;;;;20.68;63.19;98837.81;6134773;23;20012;-91
2022/08/17 03:39:10;;;;;;;4.85;3.90;;;;;;;20.56;63.37;98824.94;6111170;23;19997;-90
2022/08/17 03:41:43;;;;;;;9.73;4.45;;;;;;;20.47;63.76;98833.31;6136202;23;20005;-90
2022/08/17 03:44:09;;;;;;;5.32;3.88;;;;;;;20.68;63.00;98849.53;6135491;23;20009;-90
2022/08/17 03:57:35;;;;;;;6.15;4.40;;;;;;;20.32;64.02;98845.78;6187013;23;20040;-93
2022/08/17 04:00:01;;;;;;;8.32;4.32;;;;;;;20.35;64.45;98855.22;6160611;23;19997;-94
2022/08/17 04:02:31;;;;;;;6.63;4.25;;;;;;;20.30;64.15;98848.06;6135640;23;20144;-93
2022/08/17 04:04:58;;;;;;;7.95;4.68;;;;;;;20.49;64.34;98874.78;6139716;23;20048;-93
2022/08/17 04:07:26;;;;;;;8.35;4.57;;;;;;;20.49;64.94;98876.72;6137185;23;20448;-94
2022/08/17 04:09:53;;;;;;;5.53;4.25;;;;;;;20.43;64.69;98861.69;6186093;23;20039;-92
2022/08/17 04:12:22;;;;;;;6.85;4.53;;;;;;;20.35;64.87;98863.44;6135981;23;20087;-91
2022/08/17 04:14:48;;;;;;;8.88;6.85;;;;;;;20.47;64.55;98862.59;6161370;23;20428;-96
2022/08/17 04:17:14;;;;;;;7.55;5.10;;;;;;;20.60;64.50;98861.44;6160793;23;20036;-95
2022/08/17 04:19:42;;;;;;;10.63;5.40;;;;;;;20.86;63.59;98880.16;6135802;23;20012;-93
2022/08/17 04:22:08;;;;;;;6.85;4.90;;;;;;;21.03;61.62;98889.97;6187420;23;20008;-94
2022/08/17 04:24:35;;;;;;;8.48;4.93;;;;;;;21.03;62.32;98881.75;6159863;23;20012;-94
2022/08/17 04:27:01;;;;;;;7.15;4.32;;;;;;;21.06;62.64;98883.78;6134814;23;20011;-95
2022/08/17 04:29:28;;;;;;;7.85;5.03;;;;;;;21.08;63.43;98877.97;6161233;23;20051;-93
2022/08/17 04:31:54;;;;;;;7.63;5.03;;;;;;;21.01;63.36;98872.31;6185488;23;20432;-96
2022/08/17 04:34:21;;;;;;;6.03;4.75;;;;;;;21.15;63.85;98894.59;6160197;23;20000;-92
2022/08/17 04:36:51;;;;;;;10.65;4.57;;;;;;;21.03;63.59;98876.28;6183391;23;20096;-92
2022/08/17 04:39:17;;;;;;;10.07;4.45;;;;;;;21.08;63.85;98894.41;6159782;23;20005;-94
2022/08/17 04:44:30;;;;;;;7.15;4.90;;;;;;;21.10;63.31;98905.78;6185583;23;20016;-92
2022/08/17 04:46:57;;;;;;;8.85;5.07;;;;;;;21.00;63.37;98890.69;6159971;23;20446;-93
2022/08/17 04:49:24;;;;;;;16.63;9.30;;;;;;;21.09;63.46;98901.47;6161096;23;20336;-92
2022/08/17 04:51:52;;;;;;;6.07;4.93;;;;;;;21.08;63.57;98902.59;6159601;23;20005;-95
2022/08/17 04:54:19;;;;;;;6.75;4.57;;;;;;;21.22;63.17;98916.69;6158373;23;20420;-92
2022/08/17 04:56:47;;;;;;;7.63;4.30;;;;;;;21.27;61.97;98908.22;6161078;23;20000;-92
2022/08/17 04:59:15;;;;;;;8.60;4.57;;;;;;;21.34;61.55;98907.59;6185041;23;20001;-93
2022/08/17 05:01:42;;;;;;;8.93;4.95;;;;;;;21.32;61.91;98902.47;6135295;23;20360;-92
2022/08/17 05:04:16;;;;;;;7.22;4.53;;;;;;;21.33;61.67;98900.53;6137566;23;20009;-93
2022/08/17 05:06:43;;;;;;;5.18;4.00;;;;;;;21.40;61.40;98909.72;6113161;23;20059;-96
2022/08/17 05:09:08;;;;;;;7.55;4.97;;;;;;;21.32;61.40;98885.25;6112137;23;20075;-93
2022/08/17 05:11:35;;;;;;;9.05;4.60;;;;;;;21.48;61.37;98904.44;6114235;23;20001;-96
2022/08/17 05:14:10;;;;;;;5.78;4.43;;;;;;;21.55;60.56;98904.66;6113631;23;20444;-92
2022/08/17 05:16:35;;;;;;;9.40;4.63;;;;;;;21.65;60.19;98911.53;6110769;23;20011;-92
2022/08/17 05:19:01;;;;;;;9.43;4.82;;;;;;;21.61;60.13;98900.50;6136862;23;19997;-93
2022/08/17 05:21:27;;;;;;;8.20;4.53;;;;;;;21.87;60.42;98918.31;6112942;23;19996;-93
2022/08/17 05:23:53;;;;;;;7.70;4.50;;;;;;;21.86;59.39;98908.53;6137323;23;20032;-94
2022/08/17 05:26:24;;;;;;;6.20;4.45;;;;;;;22.11;59.05;98925.56;6138231;23;20032;-93
2022/08/17 05:28:55;;;;;;;9.95;4.32;;;;;;;22.31;58.17;98929.19;6113165;23;20428;-94
2022/08/17 05:31:21;;;;;;;10.90;4.93;;;;;;;22.37;58.04;98909.34;6137275;23;20492;-89
2022/08/17 05:33:48;;;;;;;6.22;4.35;;;;;;;22.48;57.92;98897.81;6135856;23;20032;-89
2022/08/17 05:36:15;;;;;;;9.80;4.85;;;;;;;22.76;57.57;98919.53;6135824;23;20072;-93
2022/08/17 05:38:40;;;;;;;9.88;7.40;;;;;;;22.74;57.02;98906.19;6134689;23;20005;-89
2022/08/17 05:41:08;;;;;;;35.75;23.38;;;;;;;22.83;57.31;98908.72;6109332;23;20005;-89
2022/08/17 05:43:39;;;;;;;22.80;16.75;;;;;;;22.95;56.50;98916.81;6134203;23;20004;-89
2022/08/17 05:46:25;;;;;;;57.38;30.83;;;;;;;22.98;56.06;98910.56;6134428;23;20413;-88
2022/08/17 05:49:21;;;;;;;21.20;11.55;;;;;;;23.18;55.64;98930.59;6133511;23;20040;-92
2022/08/17 05:52:01;;;;;;;16.27;9.88;;;;;;;23.27;56.31;98935.06;6159510;23;20028;-91
2022/08/17 05:54:57;;;;;;;21.92;10.00;;;;;;;23.38;55.69;98928.59;6136723;23;20072;-90
2022/08/17 05:57:44;;;;;;;12.85;8.40;;;;;;;23.46;55.04;98906.75;6159578;23;20085;-90
2022/08/17 06:00:19;;;;;;;5.80;4.82;;;;;;;23.53;54.09;98895.88;6158881;23;20347;-90
2022/08/17 06:03:14;;;;;;;9.57;4.40;;;;;;;23.84;53.96;98916.81;6112460;23;20005;-94
2022/08/17 06:06:40;;;;;;;8.20;4.40;;;;;;;23.99;53.09;98921.41;6161904;23;20024;-94
2022/08/17 06:09:27;;;;;;;7.15;4.70;;;;;;;24.03;52.25;98909.66;6140121;23;20027;-94
2022/08/17 06:11:59;;;;;;;5.40;4.15;;;;;;;24.14;51.99;98897.66;6135039;23;20001;-91
2022/08/17 06:15:02;;;;;;;;;;;;;;;24.49;51.81;98917.78;6135772;23;20036;-94
2022/08/17 06:17:28;;;;;;;17.80;7.53;;;;;;;24.46;51.80;98899.25;6132418;23;19928;-94
2022/08/17 06:20:23;;;;;;;7.65;4.50;;;;;;;24.65;51.04;98899.13;6085129;23;20451;-92
2022/08/17 06:22:52;;;;;;;7.60;4.00;;;;;;;24.80;50.64;98887.13;6099527;23;20407;-94
2022/08/17 06:25:30;;;;;;;7.30;4.55;;;;;;;24.88;49.91;98884.44;6075275;23;20053;-93
2022/08/17 06:28:09;;;;;;;6.07;4.13;;;;;;;25.19;48.87;98900.53;6100956;23;20064;-93
2022/08/17 06:30:48;;;;;;;7.28;4.45;;;;;;;25.40;49.20;98905.50;6051642;23;20036;-92
2022/08/17 06:33:21;;;;;;;5.82;4.20;;;;;;;25.47;48.79;98898.47;6099428;23;20002;-94
2022/08/17 06:36:12;;;;;;;7.60;4.53;;;;;;;25.60;48.61;98894.22;6051993;23;20006;-93
2022/08/17 06:38:56;;;;;;;5.55;3.58;;;;;;;25.70;47.37;98893.53;6077085;23;20097;-94
2022/08/17 06:41:30;;;;;;;9.10;4.18;;;;;;;25.94;47.31;98905.97;6100131;23;20002;-91
2022/08/17 06:44:36;;;;;;;;;;;;;;;;;;;;;
2022/08/17 06:47:53;;;;;;;13.20;4.82;;;;;;;26.16;45.90;98864.69;6158443;23;20029;-90
2022/08/17 06:54:36;;;;;;;6.25;3.92;;;;;;;26.68;43.10;98892.19;6022301;23;20351;-94
2022/08/17 06:57:34;;;;;;;5.88;3.33;;;;;;;26.90;42.35;98893.06;6003660;23;20059;-93
2022/08/17 07:00:18;;;;;;;4.20;2.72;;;;;;;26.90;42.16;98874.50;6042967;23;20007;-95
2022/08/17 07:03:13;;;;;;;6.22;3.50;;;;;;;27.20;41.37;98895.47;6159182;23;20080;-93
2022/08/17 07:06:37;;;;;;;5.50;3.45;;;;;;;27.40;41.77;98893.97;6164049;23;20024;-94
2022/08/17 07:12:41;;;;;;;4.72;3.00;;;;;;;27.56;39.41;98873.44;6004149;23;20090;-95
2022/08/17 07:22:59;;;;;;;6.57;2.30;;;;;;;28.24;38.75;98889.97;5871158;24;20058;-95
2022/08/17 07:25:46;;;;;;;5.22;2.80;;;;;;;28.18;37.42;98858.34;5872100;24;20070;-93
2022/08/17 07:28:55;;;;;;;;;;;;;;;;;;;;;
2022/08/17 07:32:17;;;;;;;6.07;3.80;;;;;;;28.62;36.72;98879.19;5887099;24;20085;-93
2022/08/17 07:42:15;;;;;;;3.25;2.72;;;;;;;28.68;37.00;98872.03;5785067;24;20031;-93
2022/08/17 07:44:54;;;;;;;4.63;2.15;;;;;;;28.74;35.99;98855.75;5814548;24;20444;-93
2022/08/17 07:50:29;;;;;;;4.35;2.95;;;;;;;29.14;36.12;98876.56;5953360;24;20060;-94
2022/08/17 07:53:21;;;;;;;10.23;2.97;;;;;;;28.97;36.02;98844.16;5945371;23;19999;-95
2022/08/17 07:55:59;;;;;;;7.68;2.90;;;;;;;29.14;35.13;98854.38;5988643;23;20084;-95
2022/08/17 07:58:47;;;;;;;4.25;2.38;;;;;;;29.12;34.08;98845.69;5987780;23;20004;-91
2022/08/17 08:01:18;;;;;;;5.38;2.10;;;;;;;29.29;34.67;98854.28;6006213;23;20037;-92
2022/08/17 08:04:21;;;;;;;2.60;2.00;;;;;;;29.36;34.17;98856.97;6008590;23;20023;-89
2022/08/17 08:07:15;;;;;;;5.05;2.45;;;;;;;29.37;34.21;98848.25;6153921;23;20030;-95
2022/08/17 08:10:13;;;;;;;;;;;;;;;;;;;;;
2022/08/17 08:12:51;;;;;;;5.18;3.50;;;;;;;29.67;34.31;98840.47;6130559;23;20532;-94
2022/08/17 08:15:26;;;;;;;2.75;2.20;;;;;;;29.78;33.95;98858.66;6130047;23;20089;-93
2022/08/17 08:18:07;;;;;;;3.03;1.92;;;;;;;29.71;33.29;98841.25;6131511;23;20468;-95
2022/08/17 08:20:58;;;;;;;3.97;2.53;;;;;;;29.99;33.41;98851.31;6130910;23;20418;-94
2022/08/17 08:24:14;;;;;;;3.80;2.10;;;;;;;30.04;33.29;98842.50;6107883;23;20005;-93
2022/08/17 08:27:14;;;;;;;5.40;3.45;;;;;;;30.07;33.03;98854.78;6136734;23;20233;-96
2022/08/17 08:30:04;;;;;;;9.40;4.05;;;;;;;30.19;33.95;98849.47;6082154;23;20012;-96
2022/08/17 08:32:48;;;;;;;6.93;4.05;;;;;;;30.25;32.72;98844.25;6180258;23;20099;-95
2022/08/17 08:35:38;;;;;;;7.13;2.50;;;;;;;30.16;33.03;98835.66;6133210;23;20032;-93
2022/08/17 08:38:35;;;;;;;6.57;3.45;;;;;;;30.35;33.11;98842.59;6152002;23;20443;-93
2022/08/17 08:41:22;;;;;;;5.55;2.88;;;;;;;30.47;32.98;98839.28;6178770;23;20456;-92
2022/08/17 08:44:29;;;;;;;3.17;2.30;;;;;;;30.57;32.27;98832.00;6184457;23;20008;-91
2022/08/17 08:47:28;;;;;;;5.22;2.20;;;;;;;30.69;31.54;98838.97;6159339;23;20009;-94
2022/08/17 08:50:31;;;;;;;7.35;4.55;;;;;;;30.62;32.26;98826.75;6164156;23;20075;-93
2022/08/17 08:53:29;;;;;;;3.15;2.30;;;;;;;30.78;31.95;98831.69;6162498;23;20024;-94
2022/08/17 08:56:34;;;;;;;3.72;2.08;;;;;;;30.69;30.65;98839.75;6188217;23;20432;-94
2022/08/17 08:59:23;;;;;;;2.58;2.03;;;;;;;30.78;31.30;98848.38;6182386;23;20009;-95
2022/08/17 09:02:28;;;;;;;3.03;1.80;;;;;;;30.79;30.13;98849.16;6145910;23;20011;-95
2022/08/17 09:05:37;;;;;;;5.70;1.92;;;;;;;30.91;31.04;98845.06;6172347;23;20432;-95
2022/08/17 09:08:30;;;;;;;2.78;2.00;;;;;;;30.99;30.75;98846.53;6191529;23;20020;-93
2022/08/17 09:11:15;;;;;;;2.50;1.70;;;;;;;31.05;29.83;98846.84;6191106;23;20017;-94
2022/08/17 09:13:59;;;;;;;3.97;1.95;;;;;;;31.05;29.91;98852.41;6189791;23;20001;-95
2022/08/17 09:16:29;;;;;;;3.10;1.95;;;;;;;30.72;29.25;98833.38;6217144;23;20047;-94
2022/08/17 09:19:29;;;;;;;7.30;2.17;;;;;;;30.71;29.39;98837.34;6165037;23;20009;-93
2022/08/17 09:22:47;;;;;;;2.63;2.00;;;;;;;30.50;30.17;98818.19;6198981;23;20012;-94
2022/08/17 09:25:28;;;;;;;2.63;1.88;;;;;;;30.71;30.73;98831.78;6166543;23;20015;-93
2022/08/17 09:28:22;;;;;;;4.50;2.35;;;;;;;30.73;30.08;98823.03;6168098;23;20443;-93
2022/08/17 09:31:04;;;;;;;3.83;1.70;;;;;;;30.73;29.58;98834.94;6218344;23;20000;-92
2022/08/17 09:33:36;;;;;;;4.68;2.10;;;;;;;30.90;29.94;98840.69;6166695;23;20053;-95
2022/08/17 09:36:17;;;;;;;;;;;;;;;;;;;;;
2022/08/17 09:39:19;;;;;;;2.63;1.70;;;;;;;31.04;29.89;98834.91;6180978;23;20092;-93
2022/08/17 09:41:54;;;;;;;4.63;2.40;;;;;;;31.20;29.69;98846.19;6157019;23;20004;-93
2022/08/17 09:44:54;;;;;;;4.15;2.20;;;;;;;31.25;28.83;98833.81;6161339;23;20506;-94
2022/08/17 09:47:49;;;;;;;3.05;2.00;;;;;;;31.48;28.93;98833.09;6162034;23;20009;-94
2022/08/17 09:50:39;;;;;;;4.75;2.50;;;;;;;31.42;29.73;98840.31;6160342;23;20083;-94
2022/08/17 09:53:45;;;;;;;4.07;1.80;;;;;;;31.59;26.94;98842.03;6160222;23;20108;-93
2022/08/17 09:56:49;;;;;;;3.10;1.83;;;;;;;31.66;26.91;98832.75;6181124;23;20001;-95
2022/08/17 10:05:50;;;;;;;3.72;1.77;;;;;;;31.59;26.76;98807.84;6186881;22;20063;-92
2022/08/17 10:08:34;;;;;;;3.80;1.90;;;;;;;31.56;27.22;98806.69;6186893;23;20020;-94
2022/08/17 10:14:39;;;;;;;5.10;1.90;;;;;;;31.69;27.95;98836.69;6169729;23;20089;-93
2022/08/17 10:17:38;;;;;;;3.03;2.20;;;;;;;31.58;27.36;98815.38;6191493;23;20009;-90
2022/08/17 10:20:14;;;;;;;4.68;2.20;;;;;;;31.89;28.00;98822.81;6210359;23;20343;-89
2022/08/17 10:26:13;;;;;;;4.63;2.10;;;;;;;31.91;27.38;98801.66;6202707;23;20063;-90
2022/08/17 10:28:43;;;;;;;9.25;2.00;;;;;;;32.06;26.90;98801.41;6183568;23;20024;-91
2022/08/17 10:31:10;;;;;;;2.85;1.85;;;;;;;32.08;26.45;98813.69;6208851;23;20012;-90
2022/08/17 10:33:55;;;;;;;2.58;1.70;;;;;;;32.03;26.46;98799.50;6158827;23;20039;-90
2022/08/17 10:36:53;;;;;;;2.47;1.65;;;;;;;32.15;26.03;98808.00;6208957;23;19997;-89
2022/08/17 10:39:21;;;;;;;4.72;2.10;;;;;;;32.31;26.05;98818.44;6208247;23;20025;-89
2022/08/17 10:41:49;;;;;;;4.75;2.30;;;;;;;32.34;26.39;98806.41;6186335;23;20439;-94
2022/08/17 10:44:34;;;;;;;2.85;1.73;;;;;;;32.51;26.32;98798.88;6184947;23;20140;-93
2022/08/17 10:47:14;;;;;;;4.45;2.03;;;;;;;32.50;26.76;98810.44;6184605;23;20451;-91
2022/08/17 10:50:05;;;;;;;2.67;2.10;;;;;;;32.37;26.63;98796.41;6186323;23;20005;-91
2022/08/17 10:52:34;;;;;;;4.50;2.80;;;;;;;32.58;26.36;98809.91;6161231;23;20005;-91
2022/08/17 10:55:16;;;;;;;4.70;2.38;;;;;;;32.57;26.57;98797.19;6184935;23;20004;-93
2022/08/17 10:57:43;;;;;;;2.72;2.05;;;;;;;32.50;27.36;98790.94;6209327;23;20025;-91
2022/08/17 11:00:14;;;;;;;2.70;2.00;;;;;;;32.48;26.59;98798.94;6184181;23;20470;-91
2022/08/17 11:02:47;;;;;;;4.00;2.33;;;;;;;32.32;26.59;98803.28;6208803;23;20005;-92
2022/08/17 11:05:28;;;;;;;3.22;2.00;;;;;;;32.30;26.81;98791.75;6208401;23;20005;-92
2022/08/17 11:07:57;;;;;;;6.40;2.23;;;;;;;32.14;26.34;98797.28;6206979;23;20087;-91
2022/08/17 11:10:34;;;;;;;4.13;2.10;;;;;;;32.05;26.21;98799.84;6185041;23;20607;-92
2022/08/17 11:13:12;;;;;;;4.38;2.00;;;;;;;31.96;26.71;98803.16;6209376;23;20088;-91
2022/08/17 11:16:16;;;;;;;2.63;1.90;;;;;;;31.93;27.46;98799.22;6209585;23;20004;-93
2022/08/17 11:19:10;;;;;;;4.00;2.08;;;;;;;32.16;26.45;98789.28;6209355;23;20016;-91
2022/08/17 11:22:00;;;;;;;2.20;1.90;;;;;;;32.10;25.63;98788.19;6208503;23;19997;-93
2022/08/17 11:24:50;;;;;;;2.73;1.80;;;;;;;32.24;25.50;98790.69;6185128;23;20005;-91
2022/08/17 11:27:37;;;;;;;5.35;2.42;;;;;;;32.25;25.49;98783.13;6184477;23;20079;-92
2022/08/17 11:30:17;;;;;;;2.88;1.70;;;;;;;32.24;24.99;98773.97;6208791;23;20009;-91
2022/08/17 11:33:47;;;;;;;3.47;1.80;;;;;;;32.25;25.28;98781.13;6180075;23;20479;-93
2022/08/17 11:36:54;;;;;;;3.85;1.92;;;;;;;32.21;25.13;98760.94;6185260;23;20444;-92
2022/08/17 11:40:09;;;;;;;4.25;2.10;;;;;;;32.31;25.41;98787.78;6208875;23;20009;-93
2022/08/17 11:43:35;;;;;;;3.95;1.77;;;;;;;32.40;25.30;98787.97;6182518;23;20095;-93
2022/08/17 11:53:01;;;;;;;;;;;;;;;32.38;23.67;98768.09;6068724;23;20074;-92
2022/08/17 11:55:30;;;;;;;4.22;1.60;;;;;;;32.38;22.88;98772.91;6068686;23;20253;-91
2022/08/17 11:58:48;;;;;;;2.03;1.65;;;;;;;32.50;23.48;98766.66;6067768;23;20022;-92
2022/08/17 12:01:57;;;;;;;3.35;1.60;;;;;;;32.51;23.53;98740.34;6069097;23;20023;-94
2022/08/17 12:14:56;;;;;;;3.28;2.40;;;;;;;32.91;23.69;98711.56;6039125;23;20014;-95
2022/08/17 12:17:27;;;;;;;3.38;2.55;;;;;;;33.05;23.57;98708.41;6029778;23;20022;-96
2022/08/17 12:19:55;;;;;;;3.80;2.45;;;;;;;33.23;23.81;98710.78;6049198;23;20003;-95
2022/08/17 12:23:03;;;;;;;2.17;1.40;;;;;;;33.25;21.27;98715.94;6052764;23;20070;-96
2022/08/17 12:25:54;;;;;;;2.50;1.80;;;;;;;33.20;22.21;98737.56;6112626;23;20057;-92
2022/08/17 12:28:35;;;;;;;5.10;1.90;;;;;;;33.11;22.69;98711.50;6129636;23;20068;-94
2022/08/17 12:31:06;;;;;;;3.75;2.05;;;;;;;33.14;23.16;98708.63;6133865;23;20006;-96
2022/08/17 12:33:41;;;;;;;3.60;2.60;;;;;;;33.24;23.42;98720.72;6113618;23;20400;-96
2022/08/17 12:36:15;;;;;;;2.88;1.88;;;;;;;33.27;23.02;98703.09;6148169;23;20004;-96
2022/08/17 12:38:48;;;;;;;2.58;1.83;;;;;;;33.18;23.78;98705.72;6147013;23;20020;-96
2022/08/17 12:41:32;;;;;;;2.67;1.75;;;;;;;33.12;24.22;98708.28;6149284;23;20017;-96
2022/08/17 12:44:16;;;;;;;2.53;2.15;;;;;;;33.04;24.73;98709.66;6148185;23;20024;-95
2022/08/17 12:47:18;;;;;;;4.03;2.00;;;;;;;33.10;24.42;98705.16;6150667;23;19993;-96
2022/08/17 12:50:17;;;;;;;3.90;1.77;;;;;;;33.12;24.18;98722.22;6196312;23;20004;-95
2022/08/17 12:57:20;;;;;;;4.50;2.05;;;;;;;32.73;24.11;98698.84;6171202;22;20111;-96
2022/08/17 12:59:59;;;;;;;2.95;1.88;;;;;;;32.65;24.43;98703.03;6262130;22;20027;-95
2022/08/17 13:02:38;;;;;;;3.03;1.60;;;;;;;32.73;23.76;98706.44;6214126;22;20068;-96
2022/08/17 13:05:04;;;;;;;6.82;3.40;;;;;;;32.75;23.83;98706.78;6243396;22;20109;-96
2022/08/17 13:07:43;;;;;;;2.58;1.80;;;;;;;32.64;23.29;98689.53;6225958;22;20432;-96
2022/08/17 13:10:17;;;;;;;2.35;1.65;;;;;;;32.85;23.07;98702.94;6201674;22;20011;-95
2022/08/17 13:12:42;;;;;;;2.15;1.52;;;;;;;32.93;23.54;98711.91;6202497;22;20019;-95
2022/08/17 13:15:25;;;;;;;4.38;2.70;;;;;;;33.10;23.98;98709.91;6228885;22;19992;-95
2022/08/17 13:18:29;;;;;;;3.28;1.92;;;;;;;33.17;23.91;98706.97;6208037;22;19995;-96
2022/08/17 13:20:56;;;;;;;7.20;5.40;;;;;;;33.16;24.09;98700.59;6206731;22;20006;-96
2022/08/17 13:23:23;;;;;;;3.60;2.00;;;;;;;33.39;23.50;98715.53;6204548;22;20008;-96
2022/08/17 13:25:55;;;;;;;2.78;2.00;;;;;;;33.36;22.99;98691.31;6205131;22;20449;-95
2022/08/17 13:28:21;;;;;;;3.17;1.60;;;;;;;33.62;23.29;98706.19;6203928;22;20000;-92
2022/08/17 13:30:46;;;;;;;4.57;1.60;;;;;;;33.81;22.89;98716.41;6225647;22;20038;-93
2022/08/17 13:33:25;;;;;;;3.63;1.58;;;;;;;33.84;22.74;98697.97;6226234;22;20373;-93
2022/08/17 13:35:51;;;;;;;2.40;1.60;;;;;;;33.81;22.87;98693.28;6202022;22;19996;-94
2022/08/17 13:38:42;;;;;;;2.90;1.98;;;;;;;34.00;22.24;98717.44;6275048;22;20006;-94
2022/08/17 13:41:29;;;;;;;4.65;1.92;;;;;;;33.69;22.63;98694.78;6278688;22;20000;-95
2022/08/17 13:43:55;;;;;;;3.33;2.10;;;;;;;34.01;21.91;98696.66;6202237;22;20212;-94